createdAt,value
2018-10-11T00:02:06.270Z,14.20
2018-10-11T00:05:10.214Z,14.20
2018-10-11T00:08:14.204Z,14.10
2018-10-11T00:11:18.557Z,14.20
2018-10-11T00:14:22.560Z,14.20
2018-10-11T00:17:27.041Z,14.10
2018-10-11T00:20:31.093Z,14.00
2018-10-11T00:23:35.442Z,14.10
2018-10-11T00:26:40.048Z,14.10
2018-10-11T00:29:50.944Z,14.10
2018-10-11T00:32:55.546Z,14.00
2018-10-11T00:35:59.570Z,14.00
2018-10-11T00:39:03.993Z,14.00
2018-10-11T00:42:08.054Z,14.00
2018-10-11T00:45:12.111Z,14.10
2018-10-11T00:48:16.093Z,14.10
2018-10-11T00:51:20.358Z,14.00
2018-10-11T00:54:24.798Z,14.10
2018-10-11T00:57:29.117Z,14.10
2018-10-11T01:00:33.476Z,14.10
2018-10-11T01:03:37.991Z,14.00
2018-10-11T01:06:42.345Z,14.00
2018-10-11T01:09:46.741Z,14.00
2018-10-11T01:12:51.842Z,14.00
2018-10-11T01:15:56.333Z,14.00
2018-10-11T01:19:00.807Z,14.00
2018-10-11T01:22:05.355Z,14.00
2018-10-11T01:25:09.721Z,14.00
2018-10-11T01:28:14.045Z,13.90
2018-10-11T01:31:22.657Z,13.90
2018-10-11T01:34:27.021Z,14.00
2018-10-11T01:37:31.224Z,13.90
2018-10-11T01:40:35.320Z,13.90
2018-10-11T01:43:39.554Z,13.90
2018-10-11T01:46:43.839Z,13.90
2018-10-11T01:49:48.214Z,13.80
2018-10-11T01:52:52.595Z,13.70
2018-10-11T01:55:57.005Z,13.70
2018-10-11T01:59:01.498Z,13.60
2018-10-11T02:02:05.915Z,13.60
2018-10-11T02:05:10.360Z,13.50
2018-10-11T02:08:14.523Z,13.50
2018-10-11T02:11:18.867Z,13.40
2018-10-11T02:14:23.096Z,13.30
2018-10-11T02:17:27.309Z,13.20
2018-10-11T02:20:31.799Z,13.20
2018-10-11T02:23:36.145Z,13.20
2018-10-11T02:26:40.485Z,13.10
2018-10-11T02:29:44.843Z,13.00
2018-10-11T02:32:49.272Z,12.90
2018-10-11T02:35:53.793Z,12.90
2018-10-11T02:38:58.342Z,12.90
2018-10-11T02:42:02.774Z,12.90
2018-10-11T02:45:07.300Z,13.00
2018-10-11T02:48:11.602Z,12.90
2018-10-11T02:51:15.985Z,12.90
2018-10-11T02:54:20.343Z,12.90
2018-10-11T02:57:35.498Z,12.90
2018-10-11T03:00:39.871Z,12.90
2018-10-11T03:03:44.137Z,12.80
2018-10-11T03:06:48.412Z,12.80
2018-10-11T03:09:52.898Z,12.80
2018-10-11T03:12:57.739Z,12.80
2018-10-11T03:16:01.921Z,12.80
2018-10-11T03:19:06.447Z,12.80
2018-10-11T03:22:11.193Z,12.70
2018-10-11T03:25:15.515Z,12.70
2018-10-11T03:28:19.976Z,12.60
2018-10-11T03:31:24.475Z,12.50
2018-10-11T03:34:29.678Z,12.40
2018-10-11T03:37:34.019Z,12.50
2018-10-11T03:40:38.266Z,12.50
2018-10-11T03:43:43.057Z,12.40
2018-10-11T03:46:53.978Z,12.40
2018-10-11T03:49:58.324Z,12.40
2018-10-11T03:53:02.744Z,12.40
2018-10-11T03:56:07.281Z,12.40
2018-10-11T03:59:12.262Z,12.30
2018-10-11T04:02:16.748Z,12.30
2018-10-11T04:05:21.111Z,12.20
2018-10-11T04:08:25.608Z,12.30
2018-10-11T04:11:30.035Z,12.30
2018-10-11T04:14:34.398Z,12.20
2018-10-11T04:17:38.685Z,12.20
2018-10-11T04:20:43.009Z,12.20
2018-10-11T04:23:47.137Z,12.20
2018-10-11T04:26:51.558Z,12.20
2018-10-11T04:29:55.854Z,12.10
2018-10-11T04:33:00.123Z,12.10
2018-10-11T04:36:04.201Z,12.10
2018-10-11T04:39:09.437Z,12.10
2018-10-11T04:42:17.787Z,12.10
2018-10-11T04:45:22.102Z,12.10
2018-10-11T04:48:26.341Z,12.10
2018-10-11T04:51:30.604Z,12.10
2018-10-11T04:54:34.829Z,12.00
2018-10-11T04:57:39.024Z,12.00
2018-10-11T05:00:43.164Z,12.00
2018-10-11T05:03:47.636Z,11.90
2018-10-11T05:06:52.146Z,11.90
2018-10-11T05:09:56.454Z,12.00
2018-10-11T05:13:00.693Z,11.90
2018-10-11T05:16:05.131Z,12.00
2018-10-11T05:19:10.077Z,11.90
2018-10-11T05:22:14.602Z,12.00
2018-10-11T05:25:18.981Z,12.00
2018-10-11T05:28:23.442Z,11.90
2018-10-11T05:31:28.468Z,11.90
2018-10-11T05:34:32.960Z,11.90
2018-10-11T05:37:37.098Z,12.00
2018-10-11T05:40:41.890Z,12.00
2018-10-11T05:43:46.177Z,12.10
2018-10-11T05:46:50.583Z,12.10
2018-10-11T05:49:55.011Z,12.10
2018-10-11T05:52:59.440Z,12.20
2018-10-11T05:56:03.712Z,12.20
2018-10-11T05:59:08.586Z,12.20
2018-10-11T06:02:13.028Z,12.20
2018-10-11T06:05:17.253Z,12.30
2018-10-11T06:08:21.397Z,12.40
2018-10-11T06:11:25.897Z,12.40
2018-10-11T06:14:30.347Z,12.50
2018-10-11T06:17:34.607Z,12.60
2018-10-11T06:20:38.871Z,12.70
2018-10-11T06:23:43.366Z,12.70
2018-10-11T06:26:47.822Z,12.80
2018-10-11T06:29:52.199Z,12.90
2018-10-11T06:32:56.640Z,12.80
2018-10-11T06:36:01.238Z,12.90
2018-10-11T06:39:07.137Z,13.10
2018-10-11T06:42:11.513Z,13.20
2018-10-11T06:45:16.351Z,13.30
2018-10-11T06:48:20.894Z,13.40
2018-10-11T06:51:25.564Z,13.60
2018-10-11T06:54:29.938Z,13.70
2018-10-11T06:57:34.380Z,13.80
2018-10-11T07:00:38.631Z,13.90
2018-10-11T07:03:42.951Z,14.10
2018-10-11T07:06:47.405Z,14.20
2018-10-11T07:09:51.921Z,14.30
2018-10-11T07:12:56.092Z,14.50
2018-10-11T07:16:00.517Z,14.60
2018-10-11T07:19:04.883Z,14.80
2018-10-11T07:22:09.254Z,14.90
2018-10-11T07:25:13.584Z,15.10
2018-10-11T07:28:18.056Z,15.20
2018-10-11T07:31:22.338Z,15.30
2018-10-11T07:34:26.754Z,15.40
2018-10-11T07:37:31.103Z,15.60
2018-10-11T07:40:35.545Z,15.80
2018-10-11T07:43:40.363Z,15.90
2018-10-11T07:46:44.483Z,16.00
2018-10-11T07:49:48.814Z,16.10
2018-10-11T07:52:53.311Z,16.30
2018-10-11T07:55:57.689Z,16.50
2018-10-11T07:59:02.275Z,16.80
2018-10-11T08:02:06.755Z,17.10
2018-10-11T08:05:11.029Z,17.40
2018-10-11T08:08:16.021Z,17.70
2018-10-11T08:11:20.334Z,18.10
2018-10-11T08:14:24.542Z,19.20
2018-10-11T08:17:29.066Z,22.30
2018-10-11T08:20:33.042Z,26.30
2018-10-11T08:23:37.250Z,29.90
2018-10-11T08:26:41.748Z,32.40
2018-10-11T08:29:46.081Z,34.30
2018-10-11T08:32:50.627Z,36.20
2018-10-11T08:35:55.031Z,37.80
2018-10-11T08:38:59.365Z,39.30
2018-10-11T08:42:03.869Z,40.70
2018-10-11T08:45:08.164Z,41.70
2018-10-11T08:48:12.632Z,42.70
2018-10-11T08:51:16.842Z,43.40
2018-10-11T08:54:26.315Z,43.80
2018-10-11T08:57:30.488Z,44.40
2018-10-11T09:00:34.646Z,44.20
2018-10-11T09:03:39.032Z,44.60
2018-10-11T09:06:43.418Z,45.00
2018-10-11T09:09:53.561Z,45.50
2018-10-11T09:12:52.293Z,46.00
2018-10-11T09:15:56.711Z,46.70
2018-10-11T09:19:01.185Z,47.10
2018-10-11T09:22:05.630Z,47.70
2018-10-11T09:25:09.935Z,47.60
2018-10-11T09:28:14.198Z,48.20
2018-10-11T09:31:18.528Z,47.90
2018-10-11T09:34:22.849Z,48.40
2018-10-11T09:37:27.137Z,49.00
2018-10-11T09:40:31.372Z,49.20
2018-10-11T09:43:35.591Z,49.20
2018-10-11T09:46:39.938Z,49.30
2018-10-11T09:49:44.288Z,49.90
2018-10-11T09:52:48.218Z,50.30
2018-10-11T09:55:52.102Z,50.80
2018-10-11T09:58:56.167Z,50.80
2018-10-11T10:02:00.665Z,51.10
2018-10-11T10:05:05.046Z,51.20
2018-10-11T10:08:09.607Z,49.60
2018-10-11T10:11:13.903Z,48.20
2018-10-11T10:14:18.311Z,49.30
2018-10-11T10:17:22.747Z,50.10
2018-10-11T10:20:27.107Z,51.10
2018-10-11T10:23:31.260Z,52.00
2018-10-11T10:26:35.674Z,52.10
2018-10-11T10:29:39.774Z,52.50
2018-10-11T10:32:43.972Z,52.90
2018-10-11T10:35:48.293Z,53.40
2018-10-11T10:38:52.176Z,53.80
2018-10-11T10:41:56.055Z,53.90
2018-10-11T10:44:59.993Z,54.00
2018-10-11T10:48:04.206Z,53.90
2018-10-11T10:51:08.308Z,53.20
2018-10-11T10:54:17.730Z,52.80
2018-10-11T10:57:21.871Z,53.00
2018-10-11T11:00:26.015Z,53.00
2018-10-11T11:03:30.109Z,52.80
2018-10-11T11:06:34.016Z,51.60
2018-10-11T11:09:38.281Z,51.90
2018-10-11T11:12:42.264Z,52.10
2018-10-11T11:15:46.222Z,50.60
2018-10-11T11:18:50.658Z,49.60
2018-10-11T11:21:55.216Z,50.40
2018-10-11T11:25:00.612Z,50.80
2018-10-11T11:28:05.024Z,51.50
2018-10-11T11:31:08.958Z,51.00
2018-10-11T11:34:12.834Z,50.50
2018-10-11T11:37:16.921Z,49.60
2018-10-11T11:40:21.186Z,50.60
2018-10-11T11:43:25.629Z,51.90
2018-10-11T11:46:29.972Z,51.10
2018-10-11T11:49:34.243Z,49.30
2018-10-11T11:52:38.591Z,50.00
2018-10-11T11:55:42.889Z,50.30
2018-10-11T11:58:47.437Z,50.60
2018-10-11T12:01:51.723Z,51.50
2018-10-11T12:04:55.603Z,52.20
2018-10-11T12:07:59.520Z,50.90
2018-10-11T12:11:03.908Z,49.80
2018-10-11T12:14:08.757Z,49.40
2018-10-11T12:17:13.130Z,49.10
2018-10-11T12:20:17.486Z,48.30
2018-10-11T12:23:21.787Z,48.60
2018-10-11T12:26:26.351Z,49.40
2018-10-11T12:29:30.628Z,49.50
2018-10-11T12:32:34.918Z,48.50
2018-10-11T12:35:38.934Z,48.70
2018-10-11T12:38:43.137Z,48.80
2018-10-11T12:41:47.393Z,47.30
2018-10-11T12:44:51.701Z,45.20
2018-10-11T12:47:56.027Z,44.10
2018-10-11T12:51:00.284Z,42.90
2018-10-11T12:54:04.667Z,42.00
2018-10-11T12:57:13.574Z,42.10
2018-10-11T13:00:14.858Z,43.40
2018-10-11T13:03:19.271Z,44.60
2018-10-11T13:06:23.770Z,44.60
2018-10-11T13:09:28.113Z,45.00
2018-10-11T13:12:32.538Z,44.20
2018-10-11T13:15:36.816Z,43.70
2018-10-11T13:18:41.034Z,44.00
2018-10-11T13:21:45.342Z,43.10
2018-10-11T13:24:49.762Z,42.20
2018-10-11T13:27:54.198Z,43.30
2018-10-11T13:30:58.412Z,43.40
2018-10-11T13:34:02.816Z,42.30
2018-10-11T13:37:07.197Z,40.70
2018-10-11T13:40:11.517Z,38.40
2018-10-11T13:43:15.893Z,36.70
2018-10-11T13:46:20.218Z,35.20
2018-10-11T13:49:24.562Z,33.70
2018-10-11T13:52:28.754Z,31.30
2018-10-11T13:55:33.097Z,30.50
2018-10-11T13:58:37.387Z,29.20
2018-10-11T14:01:41.846Z,28.50
2018-10-11T14:04:46.047Z,27.90
2018-10-11T14:07:50.009Z,27.40
2018-10-11T14:10:54.422Z,27.20
2018-10-11T14:13:58.995Z,26.80
2018-10-11T14:17:03.396Z,26.70
2018-10-11T14:20:07.729Z,26.50
2018-10-11T14:23:12.080Z,26.10
2018-10-11T14:26:16.378Z,25.70
2018-10-11T14:29:20.770Z,25.40
2018-10-11T14:32:25.215Z,25.30
2018-10-11T14:35:29.626Z,25.20
2018-10-11T14:38:33.807Z,25.00
2018-10-11T14:41:38.023Z,24.90
2018-10-11T14:44:42.143Z,24.80
2018-10-11T14:47:46.194Z,24.60
2018-10-11T14:50:50.645Z,24.60
2018-10-11T14:53:57.912Z,24.40
2018-10-11T14:56:59.558Z,24.40
2018-10-11T15:00:04.053Z,24.00
2018-10-11T15:03:08.328Z,23.80
2018-10-11T15:06:12.552Z,23.60
2018-10-11T15:09:23.676Z,23.60
2018-10-11T15:12:28.050Z,23.50
2018-10-11T15:15:32.350Z,23.40
2018-10-11T15:18:36.363Z,23.30
2018-10-11T15:21:40.393Z,23.30
2018-10-11T15:24:44.313Z,23.30
2018-10-11T15:27:48.238Z,23.20
2018-10-11T15:30:52.150Z,23.20
2018-10-11T15:33:56.039Z,23.20
2018-10-11T15:37:00.125Z,23.10
2018-10-11T15:40:04.160Z,23.00
2018-10-11T15:43:08.077Z,23.00
2018-10-11T15:46:11.977Z,22.90
2018-10-11T15:49:15.932Z,22.90
2018-10-11T15:52:19.896Z,22.80
2018-10-11T15:55:23.788Z,22.70
2018-10-11T15:58:27.821Z,22.60
2018-10-11T16:01:31.681Z,22.60
2018-10-11T16:04:35.733Z,22.50
2018-10-11T16:07:39.660Z,22.40
2018-10-11T16:10:44.024Z,22.30
2018-10-11T16:13:48.177Z,22.20
2018-10-11T16:16:52.323Z,22.10
2018-10-11T16:19:56.684Z,22.00
2018-10-11T16:23:01.014Z,21.80
2018-10-11T16:26:05.187Z,21.70
2018-10-11T16:29:09.619Z,21.60
2018-10-11T16:32:14.047Z,21.50
2018-10-11T16:35:18.533Z,21.50
2018-10-11T16:38:22.582Z,21.40
2018-10-11T16:41:27.248Z,21.40
2018-10-11T16:44:31.575Z,21.20
2018-10-11T16:47:36.789Z,21.10
2018-10-11T16:50:40.914Z,21.10
2018-10-11T16:53:45.385Z,21.00
2018-10-11T16:56:51.353Z,20.90
2018-10-11T16:59:55.653Z,20.80
2018-10-11T17:02:59.966Z,20.70
2018-10-11T17:06:04.431Z,20.60
2018-10-11T17:09:10.076Z,20.50
2018-10-11T17:12:14.021Z,20.30
2018-10-11T17:15:18.259Z,20.20
2018-10-11T17:18:23.518Z,20.10
2018-10-11T17:21:28.185Z,20.10
2018-10-11T17:24:32.702Z,19.90
2018-10-11T17:27:37.030Z,19.80
2018-10-11T17:30:41.363Z,19.70
2018-10-11T17:33:45.529Z,19.50
2018-10-11T17:36:49.858Z,19.40
2018-10-11T17:39:54.329Z,19.30
2018-10-11T17:42:58.832Z,19.20
2018-10-11T17:46:03.078Z,19.10
2018-10-11T17:49:07.465Z,18.90
2018-10-11T17:52:11.812Z,18.90
2018-10-11T17:55:16.003Z,18.80
2018-10-11T17:58:21.036Z,18.80
2018-10-11T18:01:25.389Z,18.70
2018-10-11T18:04:29.342Z,18.60
2018-10-11T18:07:33.312Z,18.50
2018-10-11T18:10:37.728Z,18.50
2018-10-11T18:13:41.760Z,18.40
2018-10-11T18:16:46.164Z,18.20
2018-10-11T18:19:50.710Z,18.10
2018-10-11T18:22:55.170Z,17.90
2018-10-11T18:26:00.526Z,17.90
2018-10-11T18:29:05.045Z,17.90
2018-10-11T18:32:09.390Z,17.90
2018-10-11T18:35:13.837Z,17.90
2018-10-11T18:38:18.067Z,17.90
2018-10-11T18:41:22.442Z,17.80
2018-10-11T18:44:26.816Z,17.80
2018-10-11T18:47:31.514Z,17.70
2018-10-11T18:50:37.477Z,17.50
2018-10-11T18:53:42.759Z,17.60
2018-10-11T18:56:47.210Z,17.60
2018-10-11T18:59:52.087Z,17.50
2018-10-11T19:02:56.425Z,17.50
2018-10-11T19:06:01.499Z,17.40
2018-10-11T19:09:07.676Z,17.30
2018-10-11T19:12:12.501Z,17.10
2018-10-11T19:15:17.265Z,17.10
2018-10-11T19:18:21.654Z,17.00
2018-10-11T19:21:26.409Z,16.90
2018-10-11T19:24:30.790Z,16.90
2018-10-11T19:27:35.216Z,16.80
2018-10-11T19:30:39.122Z,16.80
2018-10-11T19:33:43.511Z,16.70
2018-10-11T19:36:47.877Z,16.60
2018-10-11T19:39:52.408Z,16.40
2018-10-11T19:42:56.647Z,16.30
2018-10-11T19:46:01.073Z,16.20
2018-10-11T19:49:05.919Z,16.20
2018-10-11T19:52:10.610Z,16.20
2018-10-11T19:55:15.497Z,16.10
2018-10-11T19:58:20.054Z,16.10
2018-10-11T20:01:24.432Z,16.00
2018-10-11T20:04:28.700Z,16.10
2018-10-11T20:07:33.756Z,16.00
2018-10-11T20:10:37.987Z,16.00
2018-10-11T20:13:42.485Z,15.90
2018-10-11T20:16:46.544Z,15.90
2018-10-11T20:19:52.278Z,15.80
2018-10-11T20:22:56.337Z,15.80
2018-10-11T20:26:01.083Z,15.80
2018-10-11T20:29:05.165Z,15.70
2018-10-11T20:32:10.373Z,15.50
2018-10-11T20:35:15.087Z,15.40
2018-10-11T20:38:19.162Z,15.40
2018-10-11T20:41:23.186Z,15.40
2018-10-11T20:44:27.292Z,15.40
2018-10-11T20:47:31.397Z,15.30
2018-10-11T20:50:35.920Z,15.30
2018-10-11T20:53:40.087Z,15.30
2018-10-11T20:56:44.621Z,15.20
2018-10-11T20:59:49.089Z,15.10
2018-10-11T21:02:53.496Z,15.10
2018-10-11T21:05:58.141Z,15.10
2018-10-11T21:09:02.594Z,15.20
2018-10-11T21:12:07.076Z,15.10
2018-10-11T21:15:11.381Z,15.10
2018-10-11T21:18:15.594Z,15.10
2018-10-11T21:21:19.843Z,15.10
2018-10-11T21:24:24.181Z,15.10
2018-10-11T21:27:28.855Z,15.10
2018-10-11T21:30:33.170Z,15.10
2018-10-11T21:33:37.457Z,15.00
2018-10-11T21:36:41.481Z,15.00
2018-10-11T21:39:46.492Z,15.10
2018-10-11T21:42:50.887Z,15.00
2018-10-11T21:45:55.338Z,15.00
2018-10-11T21:48:59.673Z,15.00
2018-10-11T21:52:03.906Z,15.00
2018-10-11T21:55:07.907Z,14.90
2018-10-11T21:58:12.062Z,14.90
2018-10-11T22:01:23.481Z,14.90
2018-10-11T22:04:28.035Z,14.90
2018-10-11T22:07:32.048Z,14.80
2018-10-11T22:10:36.050Z,14.70
2018-10-11T22:13:40.690Z,14.60
2018-10-11T22:16:46.780Z,14.60
2018-10-11T22:19:51.833Z,14.60
2018-10-11T22:22:56.895Z,14.50
2018-10-11T22:26:01.000Z,14.50
2018-10-11T22:29:05.461Z,14.50
2018-10-11T22:32:10.092Z,14.50
2018-10-11T22:35:14.486Z,14.30
2018-10-11T22:38:18.825Z,14.20
2018-10-11T22:41:23.387Z,14.20
2018-10-11T22:44:28.021Z,14.20
2018-10-11T22:47:32.698Z,14.10
2018-10-11T22:50:37.028Z,14.10
2018-10-11T22:53:41.472Z,14.20
2018-10-11T22:56:45.414Z,14.20
2018-10-11T22:59:49.687Z,14.20
2018-10-11T23:02:54.155Z,14.10
2018-10-11T23:05:58.656Z,14.10
2018-10-11T23:09:03.147Z,14.10
2018-10-11T23:12:07.661Z,14.10
2018-10-11T23:15:11.750Z,14.10
2018-10-11T23:18:16.166Z,14.10
2018-10-11T23:21:20.529Z,14.10
2018-10-11T23:24:24.894Z,14.10
2018-10-11T23:27:29.246Z,14.10
2018-10-11T23:30:33.599Z,13.90
2018-10-11T23:33:39.564Z,13.90
2018-10-11T23:36:44.069Z,13.90
2018-10-11T23:39:48.585Z,13.90
2018-10-11T23:42:52.859Z,13.90
2018-10-11T23:45:57.217Z,13.90
2018-10-11T23:49:01.516Z,13.80
2018-10-11T23:52:05.804Z,13.80
2018-10-11T23:55:10.231Z,13.80
2018-10-11T23:58:14.630Z,13.70
